Terminal Aerodrome Forecast
Issued by NWS Charleston, WV

Home | Current Version | Previous Version | Text Only | Print | Product List | Glossary On
Versions: 1 2 3 4 5 6 7 8 9 10 11 12 13 14 15 16 17 18 19 20 21 22 23 24 25 26 27 28 29 30
000
FTUS41 KRLX 180538
TAFEKN
TAF
KEKN 180538Z 1806/1906 00000KT P6SM SCT200 WS010/15020KT
     FM181100 19007KT P6SM OVC100
     FM181500 20008G14KT 6SM -SHRA OVC050
     FM181800 21011G18KT P6SM -SHRA OVC050
     FM182000 20014G22KT P6SM OVC050
     FM190000 20014G24KT P6SM SHRA OVC050
     FM190200 20015G22KT 4SM SHRA OVC030
     FM190400 22015G26KT 2SM SHRA OVC020=

USA.gov is the U.S. government's official web portal to all federal, state and local government web resources and services.